sensor_id;sensor_type;location;lat;lon;timestamp;pressure;altitude;pressure_sealevel;temperature;humidity
25560;BME280;13450;49.374;8.584;2022-09-09T00:00:15;100053.22;;;15.62;100.00
25560;BME280;13450;49.374;8.584;2022-09-09T00:02:49;100045.22;;;15.55;100.00
25560;BME280;13450;49.374;8.584;2022-09-09T00:05:23;100050.03;;;15.53;100.00
25560;BME280;13450;49.374;8.584;2022-09-09T00:07:52;100046.13;;;15.49;100.00
25560;BME280;13450;49.374;8.584;2022-09-09T00:15:58;100051.31;;;15.51;100.00
25560;BME280;13450;49.374;8.584;2022-09-09T00:23:25;100050.03;;;15.53;100.00
25560;BME280;13450;49.374;8.584;2022-09-09T00:25:55;100043.94;;;15.58;100.00
25560;BME280;13450;49.374;8.584;2022-09-09T00:28:24;100035.38;;;15.61;100.00
25560;BME280;13450;49.374;8.584;2022-09-09T00:30:55;100039.94;;;15.61;100.00
25560;BME280;13450;49.374;8.584;2022-09-09T00:33:23;100044.19;;;15.56;100.00
25560;BME280;13450;49.374;8.584;2022-09-09T00:35:50;100039.59;;;15.57;100.00
25560;BME280;13450;49.374;8.584;2022-09-09T00:38:29;100031.28;;;15.59;100.00
25560;BME280;13450;49.374;8.584;2022-09-09T00:43:29;100026.16;;;15.69;100.00
25560;BME280;13450;49.374;8.584;2022-09-09T00:45:59;100034.38;;;15.74;100.00
25560;BME280;13450;49.374;8.584;2022-09-09T00:51:09;100029.91;;;15.68;100.00
25560;BME280;13450;49.374;8.584;2022-09-09T00:56:21;100029.22;;;15.73;100.00
25560;BME280;13450;49.374;8.584;2022-09-09T01:01:18;100048.47;;;15.76;100.00
25560;BME280;13450;49.374;8.584;2022-09-09T01:03:52;100046.09;;;15.68;100.00
25560;BME280;13450;49.374;8.584;2022-09-09T01:06:34;100041.75;;;15.67;100.00
25560;BME280;13450;49.374;8.584;2022-09-09T01:10:03;100049.22;;;15.65;100.00
25560;BME280;13450;49.374;8.584;2022-09-09T01:14:42;100053.22;;;15.62;100.00
25560;BME280;13450;49.374;8.584;2022-09-09T01:17:12;100043.47;;;15.61;100.00
25560;BME280;13450;49.374;8.584;2022-09-09T01:25:12;100052.66;;;15.72;100.00
25560;BME280;13450;49.374;8.584;2022-09-09T01:27:41;100055.16;;;15.74;100.00
25560;BME280;13450;49.374;8.584;2022-09-09T01:30:11;100053.25;;;15.74;100.00
25560;BME280;13450;49.374;8.584;2022-09-09T01:35:10;100049.41;;;15.70;100.00
25560;BME280;13450;49.374;8.584;2022-09-09T01:37:38;100053.25;;;15.74;100.00
25560;BME280;13450;49.374;8.584;2022-09-09T01:40:04;100039.75;;;15.74;100.00
25560;BME280;13450;49.374;8.584;2022-09-09T01:42:29;100045.78;;;15.76;100.00
25560;BME280;13450;49.374;8.584;2022-09-09T01:44:54;100041.22;;;15.77;100.00
25560;BME280;13450;49.374;8.584;2022-09-09T01:47:22;100044.13;;;15.75;100.00
25560;BME280;13450;49.374;8.584;2022-09-09T01:49:50;100055.94;;;15.74;100.00
25560;BME280;13450;49.374;8.584;2022-09-09T01:52:15;100053.72;;;15.71;100.00
25560;BME280;13450;49.374;8.584;2022-09-09T01:54:40;100055.59;;;15.71;100.00
25560;BME280;13450;49.374;8.584;2022-09-09T01:57:19;100047.72;;;15.69;100.00
25560;BME280;13450;49.374;8.584;2022-09-09T02:02:13;100047.16;;;15.67;100.00
25560;BME280;13450;49.374;8.584;2022-09-09T02:04:50;100050.91;;;15.66;100.00
25560;BME280;13450;49.374;8.584;2022-09-09T02:09:47;100053.00;;;15.64;100.00
25560;BME280;13450;49.374;8.584;2022-09-09T02:13:17;100045.94;;;15.63;100.00
25560;BME280;13450;49.374;8.584;2022-09-09T02:18:11;100052.41;;;15.62;100.00
25560;BME280;13450;49.374;8.584;2022-09-09T02:20:38;100055.31;;;15.60;100.00
25560;BME280;13450;49.374;8.584;2022-09-09T02:23:04;100051.44;;;15.56;100.00
25560;BME280;13450;49.374;8.584;2022-09-09T02:25:32;100054.81;;;15.51;100.00
25560;BME280;13450;49.374;8.584;2022-09-09T02:28:00;100053.16;;;15.50;100.00
25560;BME280;13450;49.374;8.584;2022-09-09T02:30:27;100060.06;;;15.46;100.00
25560;BME280;13450;49.374;8.584;2022-09-09T02:32:54;100051.38;;;15.44;100.00
25560;BME280;13450;49.374;8.584;2022-09-09T02:35:22;100055.94;;;15.43;100.00
25560;BME280;13450;49.374;8.584;2022-09-09T02:37:49;100056.16;;;15.42;100.00
25560;BME280;13450;49.374;8.584;2022-09-09T02:40:15;100062.03;;;15.39;100.00
25560;BME280;13450;49.374;8.584;2022-09-09T02:45:25;100055.66;;;15.33;100.00
25560;BME280;13450;49.374;8.584;2022-09-09T02:56:03;100049.59;;;15.19;100.00
25560;BME280;13450;49.374;8.584;2022-09-09T02:58:07;100038.69;;;15.14;100.00
25560;BME280;13450;49.374;8.584;2022-09-09T03:00:34;100042.88;;;15.10;100.00
25560;BME280;13450;49.374;8.584;2022-09-09T03:03:04;100038.97;;;15.06;100.00
25560;BME280;13450;49.374;8.584;2022-09-09T03:05:30;100034.63;;;15.04;100.00
25560;BME280;13450;49.374;8.584;2022-09-09T03:07:55;100031.59;;;15.01;100.00
25560;BME280;13450;49.374;8.584;2022-09-09T03:10:20;100032.59;;;15.00;100.00
25560;BME280;13450;49.374;8.584;2022-09-09T03:12:45;100046.06;;;15.00;100.00
25560;BME280;13450;49.374;8.584;2022-09-09T03:15:10;100045.72;;;14.96;100.00
25560;BME280;13450;49.374;8.584;2022-09-09T03:17:36;100042.44;;;14.94;100.00
25560;BME280;13450;49.374;8.584;2022-09-09T03:20:02;100032.94;;;14.92;100.00
25560;BME280;13450;49.374;8.584;2022-09-09T03:22:30;100044.50;;;14.92;100.00
25560;BME280;13450;49.374;8.584;2022-09-09T03:24:56;100037.47;;;14.91;100.00
25560;BME280;13450;49.374;8.584;2022-09-09T03:27:24;100037.47;;;14.91;100.00
25560;BME280;13450;49.374;8.584;2022-09-09T03:29:49;100045.56;;;14.91;100.00
25560;BME280;13450;49.374;8.584;2022-09-09T03:32:18;100046.22;;;14.86;100.00
25560;BME280;13450;49.374;8.584;2022-09-09T03:34:43;100051.25;;;14.83;100.00
25560;BME280;13450;49.374;8.584;2022-09-09T03:37:08;100040.03;;;14.86;100.00
25560;BME280;13450;49.374;8.584;2022-09-09T03:39:34;100033.22;;;14.83;100.00
25560;BME280;13450;49.374;8.584;2022-09-09T03:41:59;100036.72;;;14.84;100.00
25560;BME280;13450;49.374;8.584;2022-09-09T03:44:24;100046.22;;;14.86;100.00
25560;BME280;13450;49.374;8.584;2022-09-09T03:46:49;100048.25;;;14.91;100.00
25560;BME280;13450;49.374;8.584;2022-09-09T03:49:15;100048.25;;;14.91;100.00
25560;BME280;13450;49.374;8.584;2022-09-09T03:51:40;100045.13;;;14.94;100.00
25560;BME280;13450;49.374;8.584;2022-09-09T03:54:05;100049.25;;;14.97;100.00
25560;BME280;13450;49.374;8.584;2022-09-09T03:56:33;100043.63;;;14.98;100.00
25560;BME280;13450;49.374;8.584;2022-09-09T03:58:58;100051.25;;;15.01;100.00
25560;BME280;13450;49.374;8.584;2022-09-09T04:01:23;100049.16;;;15.03;100.00
25560;BME280;13450;49.374;8.584;2022-09-09T04:03:49;100048.56;;;15.01;100.00
25560;BME280;13450;49.374;8.584;2022-09-09T04:06:17;100052.06;;;15.02;100.00
25560;BME280;13450;49.374;8.584;2022-09-09T04:08:43;100055.97;;;15.06;100.00
25560;BME280;13450;49.374;8.584;2022-09-09T04:11:08;100049.31;;;15.09;100.00
25560;BME280;13450;49.374;8.584;2022-09-09T04:13:34;100052.16;;;15.14;100.00
25560;BME280;13450;49.374;8.584;2022-09-09T04:16:00;100049.47;;;15.14;100.00
25560;BME280;13450;49.374;8.584;2022-09-09T04:18:26;100060.84;;;15.16;100.00
25560;BME280;13450;49.374;8.584;2022-09-09T04:20:54;100057.75;;;15.31;100.00
25560;BME280;13450;49.374;8.584;2022-09-09T04:23:22;100057.81;;;15.24;100.00
25560;BME280;13450;49.374;8.584;2022-09-09T04:25:50;100063.22;;;15.24;100.00
25560;BME280;13450;49.374;8.584;2022-09-09T04:28:16;100058.44;;;15.26;100.00
25560;BME280;13450;49.374;8.584;2022-09-09T04:30:41;100059.84;;;15.29;100.00
25560;BME280;13450;49.374;8.584;2022-09-09T04:33:09;100063.38;;;15.29;100.00
25560;BME280;13450;49.374;8.584;2022-09-09T04:35:35;100062.78;;;15.27;100.00
25560;BME280;13450;49.374;8.584;2022-09-09T04:38:00;100056.09;;;15.30;100.00
25560;BME280;13450;49.374;8.584;2022-09-09T04:40:27;100058.00;;;15.29;100.00
25560;BME280;13450;49.374;8.584;2022-09-09T04:42:53;100060.69;;;15.29;100.00
25560;BME280;13450;49.374;8.584;2022-09-09T04:45:18;100071.47;;;15.29;100.00
25560;BME280;13450;49.374;8.584;2022-09-09T04:47:43;100072.34;;;15.23;100.00
25560;BME280;13450;49.374;8.584;2022-09-09T04:50:08;100075.06;;;15.23;100.00
25560;BME280;13450;49.374;8.584;2022-09-09T04:52:34;100077.38;;;15.20;100.00
25560;BME280;13450;49.374;8.584;2022-09-09T04:55:03;100085.25;;;15.21;100.00
25560;BME280;13450;49.374;8.584;2022-09-09T04:57:28;100085.63;;;15.25;100.00
25560;BME280;13450;49.374;8.584;2022-09-09T04:59:59;100073.41;;;15.22;100.00
25560;BME280;13450;49.374;8.584;2022-09-09T05:02:27;100075.66;;;15.25;100.00
25560;BME280;13450;49.374;8.584;2022-09-09T05:04:52;100077.66;;;15.30;100.00
25560;BME280;13450;49.374;8.584;2022-09-09T05:07:17;100091.38;;;15.28;100.00
25560;BME280;13450;49.374;8.584;2022-09-09T05:09:43;100096.31;;;15.32;100.00
25560;BME280;13450;49.374;8.584;2022-09-09T05:12:10;100080.59;;;15.28;100.00
25560;BME280;13450;49.374;8.584;2022-09-09T05:14:36;100080.97;;;15.32;100.00
25560;BME280;13450;49.374;8.584;2022-09-09T05:17:02;100088.81;;;15.34;100.00
25560;BME280;13450;49.374;8.584;2022-09-09T05:19:27;100089.56;;;15.41;100.00
25560;BME280;13450;49.374;8.584;2022-09-09T05:21:52;100087.50;;;15.43;100.00
25560;BME280;13450;49.374;8.584;2022-09-09T05:24:18;100089.72;;;15.46;100.00
25560;BME280;13450;49.374;8.584;2022-09-09T05:26:45;100093.59;;;15.50;100.00
25560;BME280;13450;49.374;8.584;2022-09-09T05:29:10;100101.84;;;15.55;100.00
25560;BME280;13450;49.374;8.584;2022-09-09T05:31:35;100091.03;;;15.55;100.00
25560;BME280;13450;49.374;8.584;2022-09-09T05:34:01;100102.81;;;15.61;100.00
25560;BME280;13450;49.374;8.584;2022-09-09T05:36:26;100102.59;;;15.63;100.00
25560;BME280;13450;49.374;8.584;2022-09-09T05:38:52;100104.59;;;15.67;100.00
25560;BME280;13450;49.374;8.584;2022-09-09T05:41:19;100114.94;;;15.71;100.00
25560;BME280;13450;49.374;8.584;2022-09-09T05:43:45;100118.59;;;15.76;100.00
25560;BME280;13450;49.374;8.584;2022-09-09T05:46:12;100120.38;;;15.82;100.00
25560;BME280;13450;49.374;8.584;2022-09-09T05:48:39;100112.56;;;15.93;100.00
25560;BME280;13450;49.374;8.584;2022-09-09T05:51:05;100120.00;;;15.98;100.00
25560;BME280;13450;49.374;8.584;2022-09-09T05:53:34;100110.03;;;15.98;100.00
25560;BME280;13450;49.374;8.584;2022-09-09T05:58:28;100118.50;;;16.02;100.00
25560;BME280;13450;49.374;8.584;2022-09-09T06:00:59;100122.72;;;16.10;100.00
25560;BME280;13450;49.374;8.584;2022-09-09T06:03:24;100128.97;;;16.10;100.00
25560;BME280;13450;49.374;8.584;2022-09-09T06:05:56;100119.81;;;16.11;100.00
25560;BME280;13450;49.374;8.584;2022-09-09T06:08:22;100124.16;;;16.12;100.00
25560;BME280;13450;49.374;8.584;2022-09-09T06:10:47;100121.22;;;16.14;100.00
25560;BME280;13450;49.374;8.584;2022-09-09T06:13:12;100120.88;;;16.10;100.00
25560;BME280;13450;49.374;8.584;2022-09-09T06:15:38;100118.44;;;16.20;100.00
25560;BME280;13450;49.374;8.584;2022-09-09T06:18:03;100118.56;;;16.38;100.00
25560;BME280;13450;49.374;8.584;2022-09-09T06:20:28;100122.03;;;16.57;100.00
25560;BME280;13450;49.374;8.584;2022-09-09T06:22:56;100121.44;;;16.67;100.00
25560;BME280;13450;49.374;8.584;2022-09-09T06:25:21;100114.19;;;16.79;100.00
25560;BME280;13450;49.374;8.584;2022-09-09T06:27:50;100123.47;;;16.83;100.00
25560;BME280;13450;49.374;8.584;2022-09-09T06:30:15;100116.16;;;16.84;100.00
25560;BME280;13450;49.374;8.584;2022-09-09T06:32:42;100119.34;;;16.93;100.00
25560;BME280;13450;49.374;8.584;2022-09-09T06:35:07;100128.88;;;16.95;100.00
25560;BME280;13450;49.374;8.584;2022-09-09T06:37:33;100123.09;;;16.92;100.00
25560;BME280;13450;49.374;8.584;2022-09-09T06:39:58;100124.25;;;16.96;100.00
25560;BME280;13450;49.374;8.584;2022-09-09T06:42:23;100129.22;;;16.99;100.00
25560;BME280;13450;49.374;8.584;2022-09-09T06:44:48;100135.69;;;17.10;100.00
25560;BME280;13450;49.374;8.584;2022-09-09T06:47:13;100132.31;;;17.15;100.00
25560;BME280;13450;49.374;8.584;2022-09-09T06:49:39;100135.56;;;17.17;100.00
25560;BME280;13450;49.374;8.584;2022-09-09T06:52:08;100140.53;;;17.20;100.00
25560;BME280;13450;49.374;8.584;2022-09-09T06:54:34;100133.81;;;17.22;100.00
25560;BME280;13450;49.374;8.584;2022-09-09T06:57:01;100128.28;;;17.29;100.00
25560;BME280;13450;49.374;8.584;2022-09-09T06:59:27;100138.97;;;17.36;100.00
25560;BME280;13450;49.374;8.584;2022-09-09T07:01:53;100140.94;;;17.41;100.00
25560;BME280;13450;49.374;8.584;2022-09-09T07:04:19;100140.84;;;17.35;100.00
25560;BME280;13450;49.374;8.584;2022-09-09T07:06:45;100147.31;;;17.34;100.00
25560;BME280;13450;49.374;8.584;2022-09-09T07:09:12;100141.19;;;17.27;100.00
25560;BME280;13450;49.374;8.584;2022-09-09T07:11:41;100148.88;;;17.18;100.00
25560;BME280;13450;49.374;8.584;2022-09-09T07:14:06;100147.91;;;17.24;100.00
25560;BME280;13450;49.374;8.584;2022-09-09T07:16:32;100149.41;;;17.32;100.00
25560;BME280;13450;49.374;8.584;2022-09-09T07:18:58;100149.88;;;17.53;100.00
25560;BME280;13450;49.374;8.584;2022-09-09T07:21:24;100144.19;;;17.67;100.00
25560;BME280;13450;49.374;8.584;2022-09-09T07:23:51;100137.03;;;17.89;100.00
25560;BME280;13450;49.374;8.584;2022-09-09T07:26:17;100143.63;;;17.94;100.00
25560;BME280;13450;49.374;8.584;2022-09-09T07:28:44;100138.03;;;18.12;100.00
25560;BME280;13450;49.374;8.584;2022-09-09T07:31:13;100140.81;;;18.47;100.00
25560;BME280;13450;49.374;8.584;2022-09-09T07:33:41;100135.13;;;18.65;100.00
25560;BME280;13450;49.374;8.584;2022-09-09T07:38:37;100136.91;;;18.77;100.00
25560;BME280;13450;49.374;8.584;2022-09-09T07:41:07;100137.03;;;18.82;100.00
25560;BME280;13450;49.374;8.584;2022-09-09T07:43:34;100145.84;;;18.94;100.00
25560;BME280;13450;49.374;8.584;2022-09-09T07:46:00;100144.88;;;19.01;100.00
25560;BME280;13450;49.374;8.584;2022-09-09T07:48:28;100146.75;;;19.00;100.00
25560;BME280;13450;49.374;8.584;2022-09-09T07:51:02;100142.19;;;19.01;100.00
25560;BME280;13450;49.374;8.584;2022-09-09T07:53:27;100155.81;;;18.89;100.00
25560;BME280;13450;49.374;8.584;2022-09-09T07:55:53;100152.44;;;18.99;100.00
25560;BME280;13450;49.374;8.584;2022-09-09T07:58:20;100151.56;;;19.10;100.00
25560;BME280;13450;49.374;8.584;2022-09-09T08:00:45;100154.34;;;18.98;100.00
25560;BME280;13450;49.374;8.584;2022-09-09T08:03:10;100146.22;;;18.98;100.00
25560;BME280;13450;49.374;8.584;2022-09-09T08:05:35;100144.03;;;19.17;100.00
25560;BME280;13450;49.374;8.584;2022-09-09T08:08:01;100150.13;;;19.25;100.00
25560;BME280;13450;49.374;8.584;2022-09-09T08:10:28;100148.00;;;19.27;100.00
25560;BME280;13450;49.374;8.584;2022-09-09T08:12:53;100158.31;;;19.30;100.00
25560;BME280;13450;49.374;8.584;2022-09-09T08:15:20;100159.78;;;19.38;100.00
25560;BME280;13450;49.374;8.584;2022-09-09T08:17:45;100157.19;;;19.26;100.00
25560;BME280;13450;49.374;8.584;2022-09-09T08:20:11;100159.41;;;19.73;100.00
25560;BME280;13450;49.374;8.584;2022-09-09T08:22:36;100169.78;;;19.99;98.76
25560;BME280;13450;49.374;8.584;2022-09-09T08:25:02;100170.06;;;20.03;95.25
25560;BME280;13450;49.374;8.584;2022-09-09T08:27:33;100173.06;;;20.01;95.38
25560;BME280;13450;49.374;8.584;2022-09-09T08:29:59;100173.25;;;19.50;94.37
25560;BME280;13450;49.374;8.584;2022-09-09T08:32:24;100179.47;;;19.50;96.12
25560;BME280;13450;49.374;8.584;2022-09-09T08:34:49;100179.03;;;19.36;97.31
25560;BME280;13450;49.374;8.584;2022-09-09T08:37:17;100175.75;;;19.34;97.45
25560;BME280;13450;49.374;8.584;2022-09-09T08:39:42;100174.03;;;19.28;97.80
25560;BME280;13450;49.374;8.584;2022-09-09T08:52:26;100178.19;;;19.36;100.00
25560;BME280;13450;49.374;8.584;2022-09-09T08:54:52;100178.34;;;19.68;98.09
25560;BME280;13450;49.374;8.584;2022-09-09T08:57:24;100183.25;;;19.94;97.95
25560;BME280;13450;49.374;8.584;2022-09-09T08:59:51;100177.16;;;20.31;98.25
25560;BME280;13450;49.374;8.584;2022-09-09T09:12:41;100178.81;;;20.05;96.07
25560;BME280;13450;49.374;8.584;2022-09-09T09:15:11;100185.09;;;19.88;96.76
25560;BME280;13450;49.374;8.584;2022-09-09T09:17:42;100173.38;;;20.05;98.63
25560;BME280;13450;49.374;8.584;2022-09-09T09:20:12;100183.75;;;19.91;96.56
25560;BME280;13450;49.374;8.584;2022-09-09T09:22:50;100174.75;;;19.40;97.92
25560;BME280;13450;49.374;8.584;2022-09-09T09:32:38;100178.13;;;19.97;95.87
25560;BME280;13450;49.374;8.584;2022-09-09T09:35:06;100167.16;;;20.37;92.48
25560;BME280;13450;49.374;8.584;2022-09-09T09:37:34;100169.75;;;20.54;89.92
25560;BME280;13450;49.374;8.584;2022-09-09T09:40:13;100170.75;;;20.75;88.78
25560;BME280;13450;49.374;8.584;2022-09-09T09:42:48;100162.88;;;21.12;82.83
25560;BME280;13450;49.374;8.584;2022-09-09T09:45:15;100170.34;;;20.89;83.55
25560;BME280;13450;49.374;8.584;2022-09-09T09:47:43;100175.19;;;21.30;77.38
25560;BME280;13450;49.374;8.584;2022-09-09T09:50:16;100187.03;;;21.08;78.48
25560;BME280;13450;49.374;8.584;2022-09-09T09:52:53;100181.25;;;20.94;80.50
25560;BME280;13450;49.374;8.584;2022-09-09T09:55:18;100189.16;;;20.68;82.17
25560;BME280;13450;49.374;8.584;2022-09-09T09:57:43;100186.09;;;20.27;87.53
25560;BME280;13450;49.374;8.584;2022-09-09T10:00:19;100178.13;;;19.97;98.31
25560;BME280;13450;49.374;8.584;2022-09-09T10:02:45;100187.63;;;19.72;100.00
25560;BME280;13450;49.374;8.584;2022-09-09T10:07:45;100206.56;;;19.67;100.00
25560;BME280;13450;49.374;8.584;2022-09-09T10:10:26;100193.63;;;19.74;100.00
25560;BME280;13450;49.374;8.584;2022-09-09T10:13:03;100197.03;;;19.87;100.00
25560;BME280;13450;49.374;8.584;2022-09-09T10:15:38;100187.44;;;20.02;98.47
25560;BME280;13450;49.374;8.584;2022-09-09T10:21:02;100188.88;;;20.64;89.96
25560;BME280;13450;49.374;8.584;2022-09-09T10:26:11;100183.75;;;21.01;80.74
25560;BME280;13450;49.374;8.584;2022-09-09T10:36:21;100184.22;;;21.36;73.79
25560;BME280;13450;49.374;8.584;2022-09-09T10:38:49;100176.91;;;21.41;73.83
25560;BME280;13450;49.374;8.584;2022-09-09T10:43:51;100171.22;;;21.48;70.75
25560;BME280;13450;49.374;8.584;2022-09-09T10:54:13;100149.56;;;25.06;50.42
25560;BME280;13450;49.374;8.584;2022-09-09T10:56:44;100144.72;;;27.09;43.03
25560;BME280;13450;49.374;8.584;2022-09-09T10:59:16;100143.97;;;28.11;40.81
25560;BME280;13450;49.374;8.584;2022-09-09T11:01:43;100155.88;;;29.38;37.42
25560;BME280;13450;49.374;8.584;2022-09-09T11:04:15;100154.53;;;30.29;36.15
25560;BME280;13450;49.374;8.584;2022-09-09T11:06:43;100151.28;;;31.40;33.71
25560;BME280;13450;49.374;8.584;2022-09-09T11:09:14;100149.78;;;30.47;35.97
25560;BME280;13450;49.374;8.584;2022-09-09T11:11:43;100157.59;;;31.41;33.81
25560;BME280;13450;49.374;8.584;2022-09-09T11:16:50;100151.44;;;32.08;32.47
25560;BME280;13450;49.374;8.584;2022-09-09T11:21:47;100147.75;;;32.59;32.04
25560;BME280;13450;49.374;8.584;2022-09-09T11:24:15;100148.63;;;31.74;33.01
25560;BME280;13450;49.374;8.584;2022-09-09T11:26:46;100142.66;;;32.61;32.29
25560;BME280;13450;49.374;8.584;2022-09-09T11:31:44;100138.88;;;32.66;30.74
25560;BME280;13450;49.374;8.584;2022-09-09T11:34:32;100133.09;;;32.71;30.29
25560;BME280;13450;49.374;8.584;2022-09-09T11:37:05;100141.00;;;32.47;30.25
25560;BME280;13450;49.374;8.584;2022-09-09T11:42:12;100141.47;;;33.21;30.06
25560;BME280;13450;49.374;8.584;2022-09-09T11:44:43;100136.34;;;34.30;28.08
25560;BME280;13450;49.374;8.584;2022-09-09T11:49:42;100126.25;;;35.34;26.89
25560;BME280;13450;49.374;8.584;2022-09-09T11:52:11;100135.53;;;36.37;25.66
25560;BME280;13450;49.374;8.584;2022-09-09T11:54:44;100130.53;;;34.35;27.51
25560;BME280;13450;49.374;8.584;2022-09-09T11:59:55;100124.84;;;34.60;26.76
25560;BME280;13450;49.374;8.584;2022-09-09T12:02:24;100129.84;;;34.10;27.61
25560;BME280;13450;49.374;8.584;2022-09-09T12:05:02;100128.75;;;32.36;28.61
25560;BME280;13450;49.374;8.584;2022-09-09T12:10:04;100119.06;;;31.14;31.07
25560;BME280;13450;49.374;8.584;2022-09-09T12:17:24;100126.78;;;26.84;38.40
25560;BME280;13450;49.374;8.584;2022-09-09T12:20:04;100129.63;;;25.93;40.34
25560;BME280;13450;49.374;8.584;2022-09-09T12:22:39;100133.25;;;27.07;39.01
25560;BME280;13450;49.374;8.584;2022-09-09T12:25:16;100122.94;;;26.85;39.52
25560;BME280;13450;49.374;8.584;2022-09-09T12:27:44;100133.31;;;27.16;40.29
25560;BME280;13450;49.374;8.584;2022-09-09T12:30:14;100128.16;;;29.34;36.07
25560;BME280;13450;49.374;8.584;2022-09-09T12:34:33;100115.81;;;31.85;29.68
25560;BME280;13450;49.374;8.584;2022-09-09T12:37:13;100119.53;;;33.82;27.88
25560;BME280;13450;49.374;8.584;2022-09-09T12:40:00;100107.72;;;35.06;26.64
25560;BME280;13450;49.374;8.584;2022-09-09T12:42:27;100113.81;;;36.97;25.91
25560;BME280;13450;49.374;8.584;2022-09-09T12:47:20;100122.31;;;36.34;25.89
25560;BME280;13450;49.374;8.584;2022-09-09T12:49:48;100104.81;;;35.71;26.64
25560;BME280;13450;49.374;8.584;2022-09-09T12:54:53;100099.47;;;36.68;25.67
25560;BME280;13450;49.374;8.584;2022-09-09T12:57:19;100104.13;;;35.97;28.27
25560;BME280;13450;49.374;8.584;2022-09-09T12:59:47;100105.09;;;36.48;24.53
25560;BME280;13450;49.374;8.584;2022-09-09T13:02:22;100106.81;;;35.54;25.72
25560;BME280;13450;49.374;8.584;2022-09-09T13:04:51;100113.84;;;34.19;27.55
25560;BME280;13450;49.374;8.584;2022-09-09T13:07:18;100107.28;;;31.99;31.17
25560;BME280;13450;49.374;8.584;2022-09-09T13:09:45;100115.84;;;27.91;37.27
25560;BME280;13450;49.374;8.584;2022-09-09T13:12:19;100115.50;;;26.38;40.73
25560;BME280;13450;49.374;8.584;2022-09-09T13:14:50;100111.75;;;26.15;41.87
25560;BME280;13450;49.374;8.584;2022-09-09T13:17:26;100125.00;;;25.01;45.65
25560;BME280;13450;49.374;8.584;2022-09-09T13:19:55;100129.50;;;24.22;46.55
25560;BME280;13450;49.374;8.584;2022-09-09T13:22:34;100139.06;;;23.74;49.05
25560;BME280;13450;49.374;8.584;2022-09-09T13:25:22;100151.03;;;22.44;54.27
25560;BME280;13450;49.374;8.584;2022-09-09T13:28:02;100165.31;;;21.13;58.19
25560;BME280;13450;49.374;8.584;2022-09-09T13:35:50;100135.38;;;19.60;95.25
25560;BME280;13450;49.374;8.584;2022-09-09T13:38:17;100133.50;;;19.60;99.62
25560;BME280;13450;49.374;8.584;2022-09-09T13:40:59;100136.00;;;19.23;93.38
25560;BME280;13450;49.374;8.584;2022-09-09T13:43:30;100130.22;;;19.36;97.12
25560;BME280;13450;49.374;8.584;2022-09-09T13:46:01;100121.06;;;19.42;100.00
25560;BME280;13450;49.374;8.584;2022-09-09T13:48:27;100123.09;;;19.52;100.00
25560;BME280;13450;49.374;8.584;2022-09-09T13:51:02;100117.06;;;19.72;100.00
25560;BME280;13450;49.374;8.584;2022-09-09T13:53:29;100124.00;;;20.08;100.00
25560;BME280;13450;49.374;8.584;2022-09-09T13:55:57;100117.38;;;20.31;100.00
25560;BME280;13450;49.374;8.584;2022-09-09T13:58:23;100113.00;;;20.58;95.95
25560;BME280;13450;49.374;8.584;2022-09-09T14:00:51;100110.25;;;20.90;90.25
25560;BME280;13450;49.374;8.584;2022-09-09T14:03:16;100111.88;;;21.45;83.82
25560;BME280;13450;49.374;8.584;2022-09-09T14:05:43;100116.69;;;22.17;81.94
25560;BME280;13450;49.374;8.584;2022-09-09T14:08:15;100109.31;;;22.96;73.20
25560;BME280;13450;49.374;8.584;2022-09-09T14:10:43;100104.03;;;23.86;60.34
25560;BME280;13450;49.374;8.584;2022-09-09T14:13:09;100102.81;;;25.46;53.55
25560;BME280;13450;49.374;8.584;2022-09-09T14:15:34;100085.75;;;27.07;50.43
25560;BME280;13450;49.374;8.584;2022-09-09T14:17:59;100087.13;;;29.15;43.30
25560;BME280;13450;49.374;8.584;2022-09-09T14:20:25;100080.94;;;31.29;38.84
25560;BME280;13450;49.374;8.584;2022-09-09T14:22:50;100076.72;;;33.13;32.16
25560;BME280;13450;49.374;8.584;2022-09-09T14:25:15;100075.94;;;32.41;32.47
25560;BME280;13450;49.374;8.584;2022-09-09T14:27:41;100071.41;;;31.17;34.04
25560;BME280;13450;49.374;8.584;2022-09-09T14:30:08;100075.31;;;28.42;38.21
25560;BME280;13450;49.374;8.584;2022-09-09T14:32:33;100067.28;;;26.37;41.28
25560;BME280;13450;49.374;8.584;2022-09-09T14:34:59;100073.50;;;25.27;45.24
25560;BME280;13450;49.374;8.584;2022-09-09T14:37:27;100080.34;;;24.16;48.11
25560;BME280;13450;49.374;8.584;2022-09-09T14:39:52;100085.38;;;23.99;50.24
25560;BME280;13450;49.374;8.584;2022-09-09T14:42:19;100086.38;;;23.73;49.89
25560;BME280;13450;49.374;8.584;2022-09-09T14:44:44;100084.88;;;23.46;51.93
25560;BME280;13450;49.374;8.584;2022-09-09T14:47:09;100095.09;;;23.15;54.14
25560;BME280;13450;49.374;8.584;2022-09-09T14:49:35;100088.09;;;22.77;56.47
25560;BME280;13450;49.374;8.584;2022-09-09T14:52:01;100097.38;;;22.40;58.41
25560;BME280;13450;49.374;8.584;2022-09-09T14:54:27;100102.81;;;21.98;62.25
25560;BME280;13450;49.374;8.584;2022-09-09T14:56:53;100117.81;;;21.32;66.63
25560;BME280;13450;49.374;8.584;2022-09-09T14:59:18;100115.84;;;21.22;69.12
25560;BME280;13450;49.374;8.584;2022-09-09T15:01:43;100113.38;;;21.15;69.96
25560;BME280;13450;49.374;8.584;2022-09-09T15:04:12;100116.03;;;20.99;72.08
25560;BME280;13450;49.374;8.584;2022-09-09T15:06:37;100106.91;;;20.83;74.36
25560;BME280;13450;49.374;8.584;2022-09-09T15:09:04;100107.59;;;20.63;76.13
25560;BME280;13450;49.374;8.584;2022-09-09T15:11:34;100091.84;;;20.65;76.87